createdAt,value
2023-06-30T00:02:11.596Z,16.34
2023-06-30T00:05:17.599Z,16.34
2023-06-30T00:08:20.475Z,16.28
2023-06-30T00:11:25.199Z,16.17
2023-06-30T00:14:27.978Z,16.18
2023-06-30T00:17:30.749Z,16.19
2023-06-30T00:20:35.181Z,16.13
2023-06-30T00:23:38.002Z,16.08
2023-06-30T00:26:41.795Z,16.00
2023-06-30T00:29:45.523Z,15.95
2023-06-30T00:32:48.323Z,15.91
2023-06-30T00:35:52.135Z,15.85
2023-06-30T00:38:56.171Z,15.92
2023-06-30T00:41:59.032Z,15.82
2023-06-30T00:45:01.827Z,15.84
2023-06-30T00:48:04.915Z,15.90
2023-06-30T00:51:07.924Z,15.85
2023-06-30T00:54:10.692Z,15.56
2023-06-30T00:57:13.420Z,15.55
2023-06-30T01:00:16.750Z,15.54
2023-06-30T01:03:31.797Z,15.61
2023-06-30T01:07:03.503Z,15.61
2023-06-30T01:10:13.833Z,15.56
2023-06-30T01:13:18.637Z,15.64
2023-06-30T01:16:23.283Z,15.53
2023-06-30T01:19:36.690Z,15.51
2023-06-30T01:22:49.916Z,15.50
2023-06-30T01:25:53.664Z,15.49
2023-06-30T01:28:57.572Z,15.41
2023-06-30T01:32:01.979Z,15.39
2023-06-30T01:35:05.625Z,15.38
2023-06-30T01:38:08.411Z,15.35
2023-06-30T01:41:12.464Z,15.38
2023-06-30T01:44:15.680Z,15.32
2023-06-30T01:47:18.522Z,15.31
2023-06-30T01:50:21.876Z,15.15
2023-06-30T01:53:25.556Z,15.14
2023-06-30T01:56:28.312Z,15.04
2023-06-30T01:59:31.055Z,15.06
2023-06-30T02:02:34.001Z,15.06
2023-06-30T02:05:36.834Z,15.11
2023-06-30T02:08:39.585Z,15.06
2023-06-30T02:11:42.360Z,15.02
2023-06-30T02:14:50.727Z,14.95
2023-06-30T02:17:54.943Z,14.86
2023-06-30T02:20:57.756Z,14.93
2023-06-30T02:24:01.805Z,14.92
2023-06-30T02:27:04.663Z,15.02
2023-06-30T02:30:09.543Z,14.77
2023-06-30T02:33:12.394Z,14.71
2023-06-30T02:36:15.137Z,14.73
2023-06-30T02:39:17.892Z,14.70
2023-06-30T02:42:21.911Z,14.74
2023-06-30T02:45:24.735Z,14.70
2023-06-30T02:48:27.491Z,14.70
2023-06-30T02:51:30.263Z,14.72
2023-06-30T02:54:33.007Z,14.82
2023-06-30T02:57:35.758Z,14.87
2023-06-30T03:00:41.173Z,14.87
2023-06-30T03:03:44.307Z,14.83
2023-06-30T03:06:47.572Z,14.80
2023-06-30T03:09:51.834Z,14.71
2023-06-30T03:12:54.650Z,14.78
2023-06-30T03:15:58.958Z,14.84
2023-06-30T03:19:01.693Z,14.91
2023-06-30T03:22:05.025Z,14.89
2023-06-30T03:25:12.264Z,14.93
2023-06-30T03:28:15.000Z,15.02
2023-06-30T03:31:17.872Z,15.01
2023-06-30T03:34:20.802Z,15.07
2023-06-30T03:37:23.673Z,14.98
2023-06-30T03:40:26.442Z,15.13
2023-06-30T03:43:29.371Z,15.15
2023-06-30T03:46:32.148Z,15.14
2023-06-30T03:49:34.919Z,15.21
2023-06-30T03:52:39.617Z,15.24
2023-06-30T03:55:42.679Z,15.32
2023-06-30T03:58:46.970Z,15.43
2023-06-30T04:01:49.925Z,15.52
2023-06-30T04:04:52.674Z,15.67
2023-06-30T04:07:55.479Z,15.74
2023-06-30T04:10:58.354Z,15.76
2023-06-30T04:14:01.057Z,15.89
2023-06-30T04:17:04.076Z,16.03
2023-06-30T04:20:11.112Z,16.16
2023-06-30T04:23:13.916Z,16.32
2023-06-30T04:26:19.690Z,16.34
2023-06-30T04:29:22.407Z,16.59
2023-06-30T04:32:26.664Z,16.65
2023-06-30T04:35:29.486Z,16.71
2023-06-30T04:38:32.233Z,16.83
2023-06-30T04:41:35.035Z,17.01
2023-06-30T04:44:38.664Z,17.15
2023-06-30T04:47:41.515Z,17.24
2023-06-30T04:50:44.576Z,17.36
2023-06-30T04:53:47.369Z,17.50
2023-06-30T04:56:50.209Z,17.63
2023-06-30T04:59:55.384Z,17.67
2023-06-30T05:02:58.742Z,17.79
2023-06-30T05:06:01.608Z,17.91
2023-06-30T05:09:04.338Z,18.07
2023-06-30T05:12:07.599Z,18.25
2023-06-30T05:15:10.503Z,18.36
2023-06-30T05:18:13.329Z,18.47
2023-06-30T05:21:16.152Z,18.61
2023-06-30T05:24:18.942Z,18.72
2023-06-30T05:27:21.625Z,18.83
2023-06-30T05:30:24.391Z,18.97
2023-06-30T05:33:27.174Z,19.12
2023-06-30T05:36:34.883Z,19.29
2023-06-30T05:39:37.781Z,19.41
2023-06-30T05:42:40.537Z,19.57
2023-06-30T05:45:43.513Z,19.72
2023-06-30T05:48:46.371Z,19.80
2023-06-30T05:51:49.727Z,19.96
2023-06-30T05:54:52.653Z,20.24
2023-06-30T05:57:55.448Z,20.41
2023-06-30T06:00:58.213Z,20.59
2023-06-30T06:04:01.233Z,20.65
2023-06-30T06:07:06.634Z,20.80
2023-06-30T06:10:09.790Z,21.00
2023-06-30T06:13:12.541Z,21.06
2023-06-30T06:16:15.392Z,21.24
2023-06-30T06:19:18.690Z,21.35
2023-06-30T06:22:21.434Z,21.50
2023-06-30T06:25:24.181Z,21.55
2023-06-30T06:28:26.871Z,21.73
2023-06-30T06:31:30.698Z,21.72
2023-06-30T06:34:34.699Z,21.88
2023-06-30T06:37:37.470Z,22.05
2023-06-30T06:40:40.338Z,22.26
2023-06-30T06:43:43.595Z,22.33
2023-06-30T06:46:46.519Z,22.47
2023-06-30T06:49:49.345Z,22.57
2023-06-30T06:52:52.040Z,22.70
2023-06-30T06:55:56.295Z,22.73
2023-06-30T06:58:58.996Z,22.88
2023-06-30T07:02:01.758Z,23.01
2023-06-30T07:05:04.818Z,23.13
2023-06-30T07:08:08.547Z,23.15
2023-06-30T07:11:12.189Z,23.24
2023-06-30T07:14:14.958Z,23.43
2023-06-30T07:17:17.769Z,23.67
2023-06-30T07:20:20.619Z,23.60
2023-06-30T07:23:26.436Z,23.85
2023-06-30T07:26:32.772Z,23.78
2023-06-30T07:29:35.500Z,23.88
2023-06-30T07:32:38.314Z,23.92
2023-06-30T07:35:41.147Z,24.08
2023-06-30T07:38:43.944Z,24.18
2023-06-30T07:41:46.676Z,24.27
2023-06-30T07:44:50.553Z,24.37
2023-06-30T07:47:53.500Z,24.40
2023-06-30T07:51:08.653Z,24.46
2023-06-30T07:54:12.395Z,24.60
2023-06-30T07:57:15.108Z,24.68
2023-06-30T08:00:19.772Z,24.88
2023-06-30T08:03:22.755Z,25.18
2023-06-30T08:06:26.688Z,25.23
2023-06-30T08:09:29.406Z,25.31
2023-06-30T08:12:32.623Z,25.23
2023-06-30T08:15:35.377Z,25.30
2023-06-30T08:18:38.196Z,25.51
2023-06-30T08:21:53.189Z,25.43
2023-06-30T08:24:56.244Z,25.65
2023-06-30T08:27:59.056Z,25.89
2023-06-30T08:31:01.771Z,25.99
2023-06-30T08:34:05.749Z,26.13
2023-06-30T08:37:08.501Z,26.09
2023-06-30T08:40:11.868Z,26.14
2023-06-30T08:43:16.502Z,26.15
2023-06-30T08:46:23.988Z,26.25
2023-06-30T08:49:27.550Z,26.48
2023-06-30T08:52:30.917Z,26.28
2023-06-30T08:55:34.093Z,26.35
2023-06-30T08:58:38.482Z,26.49
2023-06-30T09:01:44.865Z,26.35
2023-06-30T09:04:49.489Z,26.74
2023-06-30T09:07:57.442Z,26.94
2023-06-30T09:11:00.872Z,26.95
2023-06-30T09:14:05.335Z,27.07
2023-06-30T09:17:08.234Z,27.22
2023-06-30T09:20:15.652Z,27.42
2023-06-30T09:23:19.613Z,27.01
2023-06-30T09:26:22.374Z,27.28
2023-06-30T09:29:25.369Z,27.31
2023-06-30T09:32:33.474Z,27.14
2023-06-30T09:35:40.453Z,27.20
2023-06-30T09:38:43.197Z,27.52
2023-06-30T09:41:47.225Z,27.43
2023-06-30T09:44:53.629Z,27.61
2023-06-30T09:47:56.944Z,27.66
2023-06-30T09:51:01.321Z,27.60
2023-06-30T09:54:09.893Z,27.84
2023-06-30T09:57:12.757Z,27.86
2023-06-30T10:00:30.242Z,27.90
2023-06-30T10:03:51.079Z,27.85
2023-06-30T10:06:55.129Z,27.95
2023-06-30T10:09:58.713Z,28.19
2023-06-30T10:13:03.599Z,28.21
2023-06-30T10:16:07.440Z,28.03
